Time;durP1;ratioP1;P1;durP2;ratioP2;P2;SDS_P1;SDS_P2;PMS_P1;PMS_P2;Temp;Humidity;BMP_temperature;BMP_pressure;BME280_temperature;BME280_humidity;BME280_pressure;Samples;Min_cycle;Max_cycle;Signal;HPM_P1;HPM_P2
2021/07/19 00:01:32;;;;;;;14.10;8.90;;;;;;;16.85;92.79;101803.56;4946612;29;20043;-87
2021/07/19 00:03:58;;;;;;;13.82;8.45;;;;;;;16.83;92.94;101805.59;4946725;28;20058;-87
2021/07/19 00:06:24;;;;;;;13.55;8.50;;;;;;;16.79;92.29;101810.53;4945953;28;20174;-87
2021/07/19 00:08:49;;;;;;;11.25;7.97;;;;;;;16.79;92.51;101809.69;4946632;28;20044;-89
2021/07/19 00:11:15;;;;;;;13.25;8.65;;;;;;;16.76;92.77;101800.06;4953885;28;20395;-86
2021/07/19 00:13:40;;;;;;;13.43;8.60;;;;;;;16.72;92.67;101793.28;4947447;28;20043;-86
2021/07/19 00:16:06;;;;;;;11.80;8.07;;;;;;;16.72;92.70;101793.28;4946927;28;20054;-87
2021/07/19 00:18:31;;;;;;;13.20;9.10;;;;;;;16.68;92.37;101800.91;4945879;28;20457;-88
2021/07/19 00:20:58;;;;;;;13.75;9.20;;;;;;;16.67;92.69;101798.41;4945660;28;20039;-86
2021/07/19 00:23:24;;;;;;;13.82;9.43;;;;;;;16.64;92.71;101802.31;4947413;28;20055;-85
2021/07/19 00:25:51;;;;;;;12.50;8.77;;;;;;;16.57;92.67;101801.38;4946658;28;20533;-87
2021/07/19 00:28:16;;;;;;;14.63;9.10;;;;;;;16.53;93.06;101799.19;4947006;28;20082;-88
2021/07/19 00:30:42;;;;;;;14.73;8.75;;;;;;;16.52;93.38;101802.91;4946721;28;20099;-86
2021/07/19 00:33:07;;;;;;;16.52;8.68;;;;;;;16.47;93.38;101798.03;4944243;28;20455;-87
2021/07/19 00:35:32;;;;;;;14.32;9.68;;;;;;;16.44;93.75;101796.50;4947485;28;20039;-87
2021/07/19 00:37:58;;;;;;;14.95;9.70;;;;;;;16.38;93.79;101791.81;4946976;28;20070;-87
2021/07/19 00:40:26;;;;;;;14.25;9.63;;;;;;;16.31;94.09;101792.69;4945744;29;20724;-87
2021/07/19 00:42:52;;;;;;;15.83;9.33;;;;;;;16.25;94.54;101791.53;4946115;28;20051;-86
2021/07/19 00:45:20;;;;;;;14.70;9.25;;;;;;;16.21;94.67;101796.47;4946277;28;20055;-86
2021/07/19 00:47:48;;;;;;;14.65;9.25;;;;;;;16.18;94.99;101790.56;4946747;28;20116;-86
2021/07/19 00:50:14;;;;;;;17.83;9.63;;;;;;;16.12;95.26;101777.75;4947569;28;20048;-86
2021/07/19 00:52:40;;;;;;;12.32;9.88;;;;;;;16.13;95.76;101772.13;4947125;28;20279;-87
2021/07/19 00:55:07;;;;;;;16.85;9.55;;;;;;;16.11;95.37;101768.78;4944602;28;20051;-87
2021/07/19 00:57:38;;;;;;;14.52;9.15;;;;;;;16.11;95.23;101776.03;4946616;28;20105;-86
2021/07/19 01:00:09;;;;;;;15.88;9.95;;;;;;;16.05;95.34;101774.88;4946633;28;20078;-87
2021/07/19 01:02:37;;;;;;;17.60;10.02;;;;;;;16.00;95.78;101778.13;4947097;28;20047;-86
2021/07/19 01:05:07;;;;;;;15.63;9.57;;;;;;;15.97;95.56;101781.19;4945568;28;20039;-89
2021/07/19 01:07:35;;;;;;;15.00;9.93;;;;;;;15.96;95.91;101775.94;4946866;28;20291;-86
2021/07/19 01:10:01;;;;;;;17.43;10.40;;;;;;;15.92;96.18;101772.75;4949111;28;20039;-87
2021/07/19 01:12:27;;;;;;;15.60;9.85;;;;;;;15.82;96.72;101766.69;4950622;28;20039;-86
2021/07/19 01:14:52;;;;;;;15.10;10.02;;;;;;;15.76;96.71;101765.53;4949864;28;20047;-86
2021/07/19 01:17:18;;;;;;;14.27;9.98;;;;;;;15.73;97.02;101763.16;4948504;28;20039;-86
2021/07/19 01:19:48;;;;;;;15.48;10.50;;;;;;;15.73;97.26;101768.59;4952225;28;20164;-87
2021/07/19 01:22:32;;;;;;;15.48;10.80;;;;;;;15.67;97.38;101773.81;4949354;28;20047;-86
2021/07/19 01:25:09;;;;;;;16.27;10.30;;;;;;;15.62;97.98;101770.78;4947534;28;20447;-89
2021/07/19 01:27:53;;;;;;;16.42;10.18;;;;;;;15.55;98.45;101774.19;4950368;28;20051;-86
2021/07/19 01:30:18;;;;;;;16.02;10.57;;;;;;;15.52;98.35;101777.25;4947042;29;20047;-87
2021/07/19 01:32:46;;;;;;;17.17;11.45;;;;;;;15.55;98.41;101782.31;4948240;28;20198;-87
2021/07/19 01:35:13;;;;;;;20.23;12.98;;;;;;;15.58;98.37;101784.66;4948220;28;20082;-86
2021/07/19 01:37:40;;;;;;;18.85;11.65;;;;;;;15.57;98.23;101784.84;4949037;28;20043;-87
2021/07/19 01:40:07;;;;;;;16.45;11.48;;;;;;;15.56;98.24;101775.91;4947996;28;20047;-87
2021/07/19 01:42:34;;;;;;;15.93;11.40;;;;;;;15.55;98.35;101765.22;4945639;28;20063;-88
2021/07/19 01:45:04;;;;;;;18.73;12.32;;;;;;;15.55;98.36;101767.94;4944909;28;20055;-89
2021/07/19 01:47:29;;;;;;;18.42;11.02;;;;;;;15.48;98.52;101761.56;4949728;28;20070;-87
2021/07/19 01:49:55;;;;;;;18.70;10.80;;;;;;;15.46;98.75;101763.56;4946665;28;20077;-86
2021/07/19 01:52:21;;;;;;;17.38;11.02;;;;;;;15.44;99.18;101749.38;4949027;28;20651;-86
2021/07/19 01:54:47;;;;;;;16.85;11.95;;;;;;;15.43;99.15;101748.53;4949627;28;20114;-87
2021/07/19 01:57:14;;;;;;;17.00;10.50;;;;;;;15.42;98.66;101749.56;4947168;28;20055;-88
2021/07/19 01:59:40;;;;;;;17.35;10.82;;;;;;;15.41;98.47;101764.09;4949187;28;20122;-86
2021/07/19 02:02:07;;;;;;;16.60;10.70;;;;;;;15.38;99.10;101766.28;4948163;28;20096;-87
2021/07/19 02:04:32;;;;;;;18.88;12.27;;;;;;;15.35;99.34;101759.38;4949174;28;20043;-88
2021/07/19 02:06:59;;;;;;;16.75;10.82;;;;;;;15.34;99.88;101765.81;4948794;28;20134;-87
2021/07/19 02:09:25;;;;;;;18.13;11.75;;;;;;;15.30;100.00;101762.56;4946990;28;20391;-87
2021/07/19 02:11:51;;;;;;;17.60;11.25;;;;;;;15.32;99.84;101755.13;4948115;28;20041;-88
2021/07/19 02:14:17;;;;;;;14.15;10.07;;;;;;;15.20;99.71;101750.28;4949411;28;20118;-87
2021/07/19 02:16:52;;;;;;;18.30;11.13;;;;;;;15.14;99.92;101748.25;4948936;28;20054;-87
2021/07/19 02:19:18;;;;;;;15.45;10.60;;;;;;;15.12;100.00;101738.44;4938631;28;20043;-88
2021/07/19 02:21:44;;;;;;;16.60;10.63;;;;;;;15.09;100.00;101746.91;4942388;28;20106;-87
2021/07/19 02:24:10;;;;;;;18.70;11.65;;;;;;;15.08;100.00;101744.38;4943632;28;20343;-87
2021/07/19 02:26:36;;;;;;;17.45;12.10;;;;;;;15.03;100.00;101749.44;4943215;28;20055;-87
2021/07/19 02:29:03;;;;;;;21.52;11.63;;;;;;;15.01;100.00;101746.91;4942650;28;20203;-87
2021/07/19 02:31:31;;;;;;;15.35;10.63;;;;;;;15.02;100.00;101745.06;4942683;28;20063;-89
2021/07/19 02:33:58;;;;;;;16.08;11.35;;;;;;;15.01;100.00;101752.31;4938140;28;20049;-88
2021/07/19 02:36:25;;;;;;;16.50;11.40;;;;;;;15.00;100.00;101760.59;4943471;28;20134;-86
2021/07/19 02:38:54;;;;;;;17.38;11.57;;;;;;;14.98;100.00;101763.47;4943683;28;20067;-86
2021/07/19 02:41:23;;;;;;;19.65;12.57;;;;;;;14.98;100.00;101770.72;4942735;28;20102;-88
2021/07/19 02:43:52;;;;;;;20.33;11.98;;;;;;;14.92;100.00;101766.84;4940743;29;20054;-87
2021/07/19 02:46:22;;;;;;;20.57;12.93;;;;;;;14.96;100.00;101770.91;4943592;28;20158;-87
2021/07/19 02:48:53;;;;;;;20.98;12.05;;;;;;;14.91;100.00;101778.69;4943623;28;20322;-87
2021/07/19 02:51:20;;;;;;;18.55;12.50;;;;;;;14.87;100.00;101764.66;4942992;28;20110;-87
2021/07/19 02:53:50;;;;;;;22.65;12.82;;;;;;;14.89;100.00;101764.47;4941478;28;20051;-87
2021/07/19 02:56:17;;;;;;;25.35;13.13;;;;;;;14.85;100.00;101765.84;4944033;28;20690;-87
2021/07/19 02:58:43;;;;;;;22.20;13.00;;;;;;;14.84;100.00;101774.94;4943224;28;20071;-88
2021/07/19 03:01:11;;;;;;;18.85;12.68;;;;;;;14.84;100.00;101773.09;4942534;28;20067;-87
2021/07/19 03:03:38;;;;;;;19.88;12.52;;;;;;;14.81;100.00;101773.41;4943852;28;20067;-87
2021/07/19 03:06:09;;;;;;;20.92;12.55;;;;;;;14.76;100.00;101772.22;4940792;28;20062;-87
2021/07/19 03:08:36;;;;;;;18.30;12.63;;;;;;;14.79;100.00;101771.94;4942021;28;20047;-87
2021/07/19 03:11:11;;;;;;;19.98;12.05;;;;;;;14.78;100.00;101775.63;4940518;28;20047;-87
2021/07/19 03:13:39;;;;;;;18.42;12.32;;;;;;;14.75;100.00;101781.34;4943321;28;20058;-87
2021/07/19 03:16:05;;;;;;;20.38;12.02;;;;;;;14.72;100.00;101774.44;4942472;28;20055;-87
2021/07/19 03:18:35;;;;;;;19.90;12.63;;;;;;;14.72;100.00;101769.03;4942402;28;20055;-87
2021/07/19 03:21:02;;;;;;;20.77;13.43;;;;;;;14.75;100.00;101767.84;4941135;28;20130;-87
2021/07/19 03:23:30;;;;;;;21.55;13.07;;;;;;;14.74;100.00;101785.09;4944211;28;20062;-87
2021/07/19 03:25:59;;;;;;;20.33;12.98;;;;;;;14.70;100.00;101776.44;4941584;28;20087;-87
2021/07/19 03:28:25;;;;;;;;;;;;;;;14.68;100.00;101769.56;4939478;28;20067;-88
2021/07/19 03:30:52;;;;;;;22.08;13.48;;;;;;;14.56;100.00;101767.16;4942109;28;19930;-87
2021/07/19 03:33:17;;;;;;;22.23;12.82;;;;;;;14.55;100.00;101768.16;4943474;28;20431;-88
2021/07/19 03:35:44;;;;;;;22.77;13.48;;;;;;;14.64;100.00;101764.47;4942172;28;20055;-88
2021/07/19 03:38:14;;;;;;;24.65;13.90;;;;;;;14.65;100.00;101759.91;4942563;28;20070;-87
2021/07/19 03:40:40;;;;;;;24.30;14.18;;;;;;;14.67;100.00;101749.78;4940124;28;20042;-87
2021/07/19 03:43:05;;;;;;;21.77;13.55;;;;;;;14.69;100.00;101760.41;4943191;28;20159;-86
2021/07/19 03:45:31;;;;;;;23.00;13.77;;;;;;;14.69;100.00;101768.53;4946601;28;20557;-86
2021/07/19 03:47:57;;;;;;;22.17;14.02;;;;;;;14.70;100.00;101778.31;4946772;28;20047;-85
2021/07/19 03:50:23;;;;;;;19.42;13.35;;;;;;;14.66;100.00;101777.81;4950733;28;20059;-87
2021/07/19 03:52:51;;;;;;;22.60;14.07;;;;;;;14.62;100.00;101780.00;4949281;28;20616;-86
2021/07/19 03:55:16;;;;;;;24.10;14.65;;;;;;;14.60;100.00;101784.72;4948431;28;20047;-85
2021/07/19 03:57:43;;;;;;;22.75;13.68;;;;;;;14.60;100.00;101784.72;4952391;28;20053;-86
2021/07/19 04:00:11;;;;;;;22.42;14.15;;;;;;;14.61;100.00;101781.00;4942916;28;20454;-88
2021/07/19 04:02:38;;;;;;;25.00;14.00;;;;;;;14.61;100.00;101785.56;4942783;28;20138;-88
2021/07/19 04:05:07;;;;;;;26.73;14.77;;;;;;;14.61;100.00;101785.56;4943097;28;20334;-88
2021/07/19 04:07:36;;;;;;;25.35;15.45;;;;;;;14.61;100.00;101789.09;4942726;28;20055;-88
2021/07/19 04:10:08;;;;;;;25.70;15.32;;;;;;;14.60;100.00;101790.13;4939905;28;20122;-87
2021/07/19 04:12:34;;;;;;;21.25;14.48;;;;;;;14.62;100.00;101788.09;4943525;28;20102;-88
2021/07/19 04:15:01;;;;;;;23.58;14.00;;;;;;;14.66;100.00;101780.50;4940833;28;22339;-89
2021/07/19 04:17:26;;;;;;;27.35;15.65;;;;;;;14.73;100.00;101783.38;4942162;28;20051;-88
2021/07/19 04:19:52;;;;;;;24.45;14.57;;;;;;;14.76;100.00;101777.63;4955673;28;20059;-88
2021/07/19 04:22:19;;;;;;;24.45;14.65;;;;;;;14.77;100.00;101777.47;4941713;28;20039;-88
2021/07/19 04:24:45;;;;;;;24.45;14.77;;;;;;;14.80;100.00;101776.31;4942591;28;20161;-88
2021/07/19 04:27:13;;;;;;;23.17;14.60;;;;;;;14.80;100.00;101784.41;4941672;28;20146;-88
2021/07/19 04:29:39;;;;;;;27.75;15.80;;;;;;;14.79;100.00;101788.13;4942109;28;20086;-88
2021/07/19 04:32:05;;;;;;;24.15;14.57;;;;;;;14.82;100.00;101785.09;4939855;28;20669;-88
2021/07/19 04:34:32;;;;;;;25.02;17.05;;;;;;;14.83;100.00;101793.03;4942792;28;20051;-89
2021/07/19 04:37:05;;;;;;;21.73;14.63;;;;;;;14.85;100.00;101785.59;4942706;28;20055;-86
2021/07/19 04:39:31;;;;;;;24.20;15.10;;;;;;;14.85;100.00;101784.75;4940793;29;20052;-86
2021/07/19 04:41:58;;;;;;;26.92;15.20;;;;;;;14.91;100.00;101780.53;4939549;28;20106;-88
2021/07/19 04:44:23;;;;;;;24.30;15.52;;;;;;;14.94;100.00;101774.78;4944744;28;20070;-87
2021/07/19 04:46:52;;;;;;;22.85;14.35;;;;;;;14.94;100.00;101775.63;4941569;28;20147;-88
2021/07/19 04:49:17;;;;;;;23.80;15.38;;;;;;;14.98;100.00;101763.47;4946461;28;20062;-87
2021/07/19 04:51:44;;;;;;;28.73;15.05;;;;;;;15.01;100.00;101776.63;4944030;28;20055;-87
2021/07/19 04:54:11;;;;;;;23.48;15.35;;;;;;;15.06;100.00;101778.84;4941905;28;20054;-87
2021/07/19 04:56:38;;;;;;;25.20;15.30;;;;;;;15.09;100.00;101773.94;4946293;28;20142;-87
2021/07/19 04:59:05;;;;;;;27.90;15.48;;;;;;;15.13;100.00;101779.84;4944517;28;20580;-88
2021/07/19 05:01:34;;;;;;;25.45;15.95;;;;;;;15.16;100.00;101782.19;4944903;28;20047;-87
2021/07/19 05:04:02;;;;;;;23.83;15.43;;;;;;;15.17;100.00;101791.16;4945157;28;20051;-88
2021/07/19 05:06:29;;;;;;;26.30;15.13;;;;;;;15.18;100.00;101793.69;4941821;28;20475;-87
2021/07/19 05:08:55;;;;;;;25.35;16.42;;;;;;;15.20;100.00;101798.94;4944667;28;20051;-88
2021/07/19 05:11:24;;;;;;;23.50;15.32;;;;;;;15.23;100.00;101802.16;4943182;28;20078;-88
2021/07/19 05:13:50;;;;;;;26.57;15.53;;;;;;;15.25;100.00;101804.69;4947931;28;20051;-88
2021/07/19 05:16:15;;;;;;;24.25;14.68;;;;;;;15.25;100.00;101815.50;4940742;28;20886;-88
2021/07/19 05:18:41;;;;;;;22.83;15.25;;;;;;;15.26;100.00;101811.78;4944750;28;20579;-88
2021/07/19 05:21:07;;;;;;;25.27;15.32;;;;;;;15.30;100.00;101807.69;4945073;28;20059;-87
2021/07/19 05:23:33;;;;;;;26.45;15.80;;;;;;;15.40;100.00;101813.78;4941610;28;20055;-87
2021/07/19 05:25:59;;;;;;;29.05;16.95;;;;;;;15.47;100.00;101809.38;4943558;28;20802;-87
2021/07/19 05:28:25;;;;;;;26.85;15.63;;;;;;;15.54;100.00;101815.78;4941938;28;20548;-88
2021/07/19 05:30:53;;;;;;;24.55;16.17;;;;;;;15.60;100.00;101808.00;4945650;28;20051;-88
2021/07/19 05:33:23;;;;;;;24.17;15.45;;;;;;;15.63;100.00;101808.50;4947633;28;20549;-87
2021/07/19 05:35:49;;;;;;;29.92;16.17;;;;;;;15.71;100.00;101805.81;4948971;28;20043;-87
2021/07/19 05:38:16;;;;;;;29.58;15.88;;;;;;;15.75;100.00;101800.91;4949607;28;20047;-87
2021/07/19 05:40:43;;;;;;;29.02;15.43;;;;;;;15.78;100.00;101805.97;4948022;28;20475;-87
2021/07/19 05:43:09;;;;;;;26.27;15.60;;;;;;;15.84;100.00;101804.41;4948568;28;20414;-87
2021/07/19 05:45:34;;;;;;;27.17;15.68;;;;;;;15.92;100.00;101807.09;4945485;28;20055;-87
2021/07/19 05:48:00;;;;;;;25.10;14.98;;;;;;;15.94;100.00;101808.63;4943937;28;20058;-89
2021/07/19 05:50:27;;;;;;;24.75;14.88;;;;;;;16.01;100.00;101812.28;4945353;28;20130;-87
2021/07/19 05:52:54;;;;;;;23.92;15.30;;;;;;;16.09;100.00;101808.72;4935589;28;20039;-87
2021/07/19 05:55:19;;;;;;;26.40;14.85;;;;;;;16.15;100.00;101812.59;4947074;28;20039;-88
2021/07/19 05:57:48;;;;;;;27.92;15.07;;;;;;;16.15;100.00;101812.59;4949501;28;20137;-87
2021/07/19 06:00:18;;;;;;;26.67;14.98;;;;;;;16.14;100.00;101810.88;4947773;28;20063;-87
2021/07/19 06:02:44;;;;;;;24.35;14.15;;;;;;;16.20;100.00;101810.22;4945120;28;20458;-88
2021/07/19 06:05:11;;;;;;;22.38;14.75;;;;;;;16.27;100.00;101805.75;4943656;28;20082;-87
2021/07/19 06:07:37;;;;;;;22.45;13.80;;;;;;;16.29;100.00;101803.72;4944017;28;20380;-87
2021/07/19 06:10:04;;;;;;;24.38;15.18;;;;;;;16.28;100.00;101802.00;4944049;28;20061;-89
2021/07/19 06:12:29;;;;;;;24.95;13.95;;;;;;;16.34;100.00;101801.34;4945755;28;20047;-87
2021/07/19 06:14:55;;;;;;;27.83;15.27;;;;;;;16.42;100.00;101797.72;4946565;28;20043;-88
2021/07/19 06:17:21;;;;;;;27.38;15.10;;;;;;;16.44;100.00;101799.22;4948941;28;20047;-86
2021/07/19 06:19:46;;;;;;;25.75;16.02;;;;;;;16.49;100.00;101796.00;4948662;28;20463;-87
2021/07/19 06:22:12;;;;;;;23.92;15.18;;;;;;;16.59;100.00;101803.88;4947698;28;20051;-87
2021/07/19 06:24:39;;;;;;;23.88;13.70;;;;;;;16.67;100.00;101807.38;4946668;28;20051;-87
2021/07/19 06:27:05;;;;;;;22.88;14.52;;;;;;;16.67;100.00;101810.09;4945535;28;20040;-87
2021/07/19 06:29:30;;;;;;;22.85;15.02;;;;;;;16.72;100.00;101808.72;4949161;28;20745;-86
2021/07/19 06:31:56;;;;;;;24.65;14.18;;;;;;;16.74;100.00;101809.34;4944771;28;20053;-86
2021/07/19 06:34:21;;;;;;;24.58;13.82;;;;;;;16.73;100.00;101811.22;4948309;28;20073;-87
2021/07/19 06:36:46;;;;;;;20.50;13.65;;;;;;;16.80;99.30;101812.25;4948434;28;20138;-86
2021/07/19 06:39:12;;;;;;;23.05;14.73;;;;;;;16.85;99.09;101812.53;4941659;28;20166;-87
2021/07/19 06:41:37;;;;;;;23.30;15.25;;;;;;;16.90;98.98;101818.25;4944084;28;20477;-86
2021/07/19 06:44:03;;;;;;;24.52;15.23;;;;;;;16.92;98.55;101813.50;4942783;28;20173;-86
2021/07/19 06:46:29;;;;;;;23.13;14.27;;;;;;;16.94;98.19;101815.19;4943265;28;20459;-88
2021/07/19 06:48:54;;;;;;;23.15;14.27;;;;;;;16.96;99.01;101821.28;4943368;28;20039;-87
2021/07/19 06:51:20;;;;;;;25.45;14.35;;;;;;;16.88;98.66;101825.72;4936625;28;20091;-88
2021/07/19 06:53:45;;;;;;;25.85;15.20;;;;;;;16.87;98.34;101821.31;4942733;28;20054;-87
2021/07/19 06:56:11;;;;;;;25.13;13.73;;;;;;;16.83;98.99;101828.16;4944800;28;20058;-88
2021/07/19 06:58:36;;;;;;;21.27;13.27;;;;;;;16.76;99.75;101821.75;4945477;28;20058;-87
2021/07/19 07:01:02;;;;;;;26.60;14.57;;;;;;;16.80;100.00;101831.22;4944159;28;20066;-90
2021/07/19 07:03:27;;;;;;;23.23;14.40;;;;;;;16.86;99.42;101833.22;4938801;28;20054;-88
2021/07/19 07:05:53;;;;;;;24.65;13.80;;;;;;;16.95;98.57;101833.16;4942747;28;20067;-89
2021/07/19 07:08:18;;;;;;;25.42;13.98;;;;;;;16.92;98.32;101824.34;4953507;28;20130;-88
2021/07/19 07:10:43;;;;;;;24.17;13.43;;;;;;;16.90;98.97;101825.56;4947275;28;20494;-88
2021/07/19 07:13:09;;;;;;;22.40;12.90;;;;;;;16.99;100.00;101815.47;4943292;28;20048;-89
2021/07/19 07:15:39;;;;;;;24.45;15.63;;;;;;;17.04;98.73;101818.50;4946793;28;20407;-88
2021/07/19 07:18:08;;;;;;;24.05;14.02;;;;;;;17.07;99.01;101826.28;4940905;28;20109;-88
2021/07/19 07:20:35;;;;;;;26.52;13.82;;;;;;;17.12;98.13;101816.56;4942314;28;20095;-87
2021/07/19 07:23:00;;;;;;;27.98;14.25;;;;;;;17.11;98.41;101827.56;4942316;28;20486;-88
2021/07/19 07:25:26;;;;;;;21.52;14.35;;;;;;;17.16;98.90;101817.03;4941721;28;20051;-87
2021/07/19 07:27:51;;;;;;;20.55;13.23;;;;;;;17.28;98.34;101820.16;4939919;28;20273;-88
2021/07/19 07:30:17;;;;;;;16.73;11.30;;;;;;;17.50;98.18;101813.00;4938891;28;20062;-88
2021/07/19 07:32:43;;;;;;;20.10;13.80;;;;;;;17.61;95.20;101820.69;4940959;28;20536;-88
2021/07/19 07:35:09;;;;;;;20.40;13.25;;;;;;;17.69;96.59;101819.72;4942507;28;20080;-87
2021/07/19 07:37:38;;;;;;;21.58;13.38;;;;;;;17.74;95.28;101822.75;4940324;28;20062;-88
2021/07/19 07:40:05;;;;;;;21.52;11.38;;;;;;;17.73;93.55;101816.47;4939758;28;20050;-91
2021/07/19 07:42:31;;;;;;;18.88;12.13;;;;;;;17.74;94.84;101818.16;4938702;28;21852;-88
2021/07/19 07:44:57;;;;;;;20.33;13.10;;;;;;;17.64;93.24;101819.47;4943210;28;20406;-88
2021/07/19 07:47:23;;;;;;;19.10;12.48;;;;;;;17.66;93.56;101823.66;4942345;28;20051;-88
2021/07/19 07:49:49;;;;;;;21.10;12.02;;;;;;;17.73;93.21;101823.78;4941097;28;20062;-89
2021/07/19 07:52:15;;;;;;;18.08;11.80;;;;;;;17.81;92.97;101821.84;4938244;28;20074;-89
2021/07/19 07:54:40;;;;;;;18.30;12.02;;;;;;;17.81;92.47;101829.16;4942515;28;20914;-87
2021/07/19 07:57:06;;;;;;;18.70;11.52;;;;;;;17.90;93.88;101832.63;4940245;28;20083;-88
2021/07/19 07:59:31;;;;;;;16.25;10.65;;;;;;;17.90;92.01;101825.31;4943184;28;20055;-87
2021/07/19 08:01:58;;;;;;;15.68;10.18;;;;;;;17.91;90.96;101823.44;4952609;28;20048;-87
2021/07/19 08:04:23;;;;;;;13.75;9.45;;;;;;;18.03;90.87;101821.91;4941179;28;20054;-90
2021/07/19 08:06:49;;;;;;;18.15;10.35;;;;;;;18.03;90.17;101824.63;4945509;28;20058;-88
2021/07/19 08:09:14;;;;;;;16.50;10.57;;;;;;;18.02;90.85;101825.69;4936925;28;20458;-87
2021/07/19 08:11:41;;;;;;;14.90;9.38;;;;;;;18.00;89.43;101825.84;4937663;28;20641;-87
2021/07/19 08:14:07;;;;;;;17.15;9.68;;;;;;;18.05;89.17;101828.00;4941299;28;20043;-88
2021/07/19 08:16:37;;;;;;;15.00;8.52;;;;;;;18.10;88.53;101825.59;4941283;28;20067;-90
2021/07/19 08:19:06;;;;;;;16.45;9.88;;;;;;;18.11;88.20;101821.00;4945630;28;20051;-88
2021/07/19 08:21:33;;;;;;;14.13;9.68;;;;;;;18.08;87.90;101822.19;4943109;28;20051;-87
2021/07/19 08:23:59;;;;;;;17.27;9.77;;;;;;;18.09;88.45;101823.88;4943504;28;20125;-87
2021/07/19 08:26:25;;;;;;;15.18;9.45;;;;;;;18.05;88.57;101828.00;4949717;28;20050;-88
2021/07/19 08:28:52;;;;;;;14.10;9.73;;;;;;;17.94;88.78;101832.03;4942239;28;20126;-87
2021/07/19 08:31:18;;;;;;;16.13;9.82;;;;;;;18.06;88.90;101821.53;4945423;28;20055;-86
2021/07/19 08:33:43;;;;;;;15.93;9.82;;;;;;;17.96;89.19;101812.84;4940603;28;20133;-87
2021/07/19 08:36:08;;;;;;;18.90;10.57;;;;;;;18.04;90.02;101820.91;4943886;28;20123;-88
2021/07/19 08:38:34;;;;;;;17.25;10.57;;;;;;;18.14;89.22;101816.00;4942324;28;20473;-86
2021/07/19 08:41:00;;;;;;;18.25;10.10;;;;;;;18.07;88.25;101809.66;4942860;28;20071;-86
2021/07/19 08:43:26;;;;;;;17.42;10.88;;;;;;;18.09;87.83;101807.59;4946494;28;20047;-87
2021/07/19 08:45:51;;;;;;;16.38;10.48;;;;;;;18.15;88.85;101806.81;4943272;28;20051;-89
2021/07/19 08:48:17;;;;;;;15.30;9.80;;;;;;;18.22;87.74;101812.34;4942830;28;20099;-87
2021/07/19 08:50:43;;;;;;;17.08;9.88;;;;;;;18.26;86.52;101813.66;4942608;28;20138;-89
2021/07/19 08:53:09;;;;;;;14.18;9.05;;;;;;;18.37;86.17;101815.03;4937845;28;20075;-88
2021/07/19 08:55:36;;;;;;;14.82;9.15;;;;;;;18.36;86.11;101811.47;4937757;28;20071;-87
2021/07/19 08:58:03;;;;;;;16.02;10.10;;;;;;;18.46;86.29;101808.44;4936100;28;20050;-88
2021/07/19 09:00:29;;;;;;;12.68;8.77;;;;;;;18.52;86.56;101807.69;4943754;28;20603;-88
2021/07/19 09:02:54;;;;;;;14.25;9.77;;;;;;;18.65;85.08;101801.56;4944361;28;20054;-87
2021/07/19 09:05:20;;;;;;;14.15;8.27;;;;;;;18.76;84.24;101794.78;4944633;28;20043;-88
2021/07/19 09:07:46;;;;;;;15.07;9.68;;;;;;;18.84;84.33;101791.94;4945205;28;20063;-87
2021/07/19 09:10:12;;;;;;;14.75;8.80;;;;;;;18.85;84.41;101794.47;4944460;28;20070;-87
2021/07/19 09:12:43;;;;;;;15.07;9.20;;;;;;;18.98;82.82;101793.75;4945601;28;20054;-86
2021/07/19 09:15:12;;;;;;;14.23;9.05;;;;;;;19.04;82.86;101783.97;4943525;28;20134;-88
2021/07/19 09:17:38;;;;;;;15.50;9.33;;;;;;;19.07;83.54;101781.69;4942885;28;20050;-89
2021/07/19 09:20:09;;;;;;;13.75;9.05;;;;;;;19.16;81.92;101783.25;4943071;28;20075;-87
2021/07/19 09:22:36;;;;;;;14.43;8.65;;;;;;;19.21;79.40;101789.97;4933694;28;20102;-87
2021/07/19 09:25:15;;;;;;;15.38;8.85;;;;;;;19.25;80.06;101791.22;4941170;28;20043;-86
2021/07/19 09:28:02;;;;;;;14.05;8.30;;;;;;;19.37;81.06;101789.69;4940640;28;20130;-89
2021/07/19 09:30:29;;;;;;;12.52;7.95;;;;;;;19.45;80.51;101783.22;4937760;28;20078;-88
2021/07/19 09:32:56;;;;;;;12.40;7.85;;;;;;;19.42;80.42;101779.03;4942651;28;20047;-88
2021/07/19 09:35:22;;;;;;;12.68;7.32;;;;;;;19.53;78.95;101778.47;4939681;28;20051;-87
2021/07/19 09:37:49;;;;;;;13.50;8.02;;;;;;;19.50;79.32;101784.31;4942479;28;20047;-88
2021/07/19 09:40:14;;;;;;;10.93;7.63;;;;;;;19.45;80.53;101784.09;4942317;28;20047;-87
2021/07/19 09:42:44;;;;;;;13.00;8.13;;;;;;;19.52;78.89;101781.41;4947028;28;20055;-86
2021/07/19 09:45:21;;;;;;;13.40;8.15;;;;;;;19.55;78.82;101776.38;4947066;28;20043;-87
2021/07/19 09:47:47;;;;;;;12.18;8.52;;;;;;;19.57;78.27;101773.47;4950038;28;20043;-86
2021/07/19 09:50:17;;;;;;;16.15;9.32;;;;;;;19.59;78.28;101771.38;4949031;28;20047;-87
2021/07/19 09:52:44;;;;;;;12.85;9.35;;;;;;;19.68;79.35;101777.53;4955964;28;20108;-87
2021/07/19 09:55:21;;;;;;;13.68;9.25;;;;;;;19.74;77.96;101774.03;4966606;28;20398;-86
2021/07/19 09:57:58;;;;;;;16.60;9.68;;;;;;;19.68;78.32;101769.38;4969306;28;20047;-88
2021/07/19 10:00:24;;;;;;;14.40;9.60;;;;;;;19.90;77.94;101775.56;4937376;28;20075;-87
2021/07/19 10:02:53;;;;;;;12.75;8.90;;;;;;;19.97;78.03;101774.56;4929669;28;20055;-88
2021/07/19 10:05:29;;;;;;;13.48;8.82;;;;;;;20.03;76.52;101773.75;4929548;28;20051;-87
2021/07/19 10:07:58;;;;;;;15.43;8.95;;;;;;;19.92;76.18;101774.31;4930560;28;20114;-86
2021/07/19 10:10:36;;;;;;;17.17;10.13;;;;;;;19.87;77.21;101773.25;4929384;28;20044;-86
2021/07/19 10:13:04;;;;;;;14.43;8.95;;;;;;;19.92;76.97;101768.88;4947026;28;20137;-86
2021/07/19 10:15:31;;;;;;;14.57;9.73;;;;;;;19.92;76.91;101771.59;4965393;28;20059;-87
2021/07/19 10:17:58;;;;;;;12.50;8.93;;;;;;;19.86;78.46;101775.13;4928663;29;20095;-87
2021/07/19 10:20:25;;;;;;;14.38;8.95;;;;;;;19.82;77.78;101776.56;4942736;28;20094;-88
2021/07/19 10:22:50;;;;;;;13.50;9.55;;;;;;;19.78;76.91;101784.31;4947970;28;20047;-88
2021/07/19 10:25:16;;;;;;;13.82;9.88;;;;;;;19.77;78.15;101787.25;4944106;28;20043;-88
2021/07/19 10:27:43;;;;;;;12.25;9.27;;;;;;;19.81;78.63;101785.78;4946473;28;20043;-87
2021/07/19 10:30:09;;;;;;;13.23;9.43;;;;;;;19.98;76.63;101776.22;4948101;28;20153;-87
2021/07/19 10:32:37;;;;;;;12.95;8.93;;;;;;;20.23;73.44;101773.00;4946156;28;20043;-88
2021/07/19 10:35:05;;;;;;;11.18;7.85;;;;;;;20.24;72.80;101763.75;4944832;28;20514;-89
2021/07/19 10:37:36;;;;;;;15.43;9.38;;;;;;;20.25;73.53;101758.13;4941579;28;20069;-86
2021/07/19 10:40:05;;;;;;;16.63;9.38;;;;;;;20.41;75.14;101750.59;4948140;28;20047;-88
2021/07/19 10:42:43;;;;;;;14.75;9.35;;;;;;;20.37;72.32;101752.03;4945941;28;20426;-87
2021/07/19 10:45:16;;;;;;;13.68;8.15;;;;;;;20.57;75.13;101742.06;4941462;28;20506;-87
2021/07/19 10:47:48;;;;;;;14.73;9.57;;;;;;;20.76;73.51;101747.75;4955124;28;20043;-87
2021/07/19 10:50:19;;;;;;;13.02;8.77;;;;;;;21.01;71.21;101737.91;4959005;28;20721;-88
2021/07/19 10:52:45;;;;;;;12.20;8.77;;;;;;;21.07;71.01;101745.22;4943457;28;20055;-90
2021/07/19 10:55:24;;;;;;;17.25;8.88;;;;;;;21.10;70.29;101741.25;4945721;28;20047;-87
2021/07/19 10:57:59;;;;;;;10.77;7.95;;;;;;;21.05;68.15;101733.69;4939792;28;20124;-87
2021/07/19 11:00:26;;;;;;;11.00;7.75;;;;;;;21.14;69.04;101743.31;4933844;28;20101;-87
2021/07/19 11:03:05;;;;;;;11.95;7.60;;;;;;;21.20;67.73;101736.19;4945425;28;20443;-87
2021/07/19 11:05:40;;;;;;;11.88;8.63;;;;;;;21.32;68.40;101731.78;4944991;28;20141;-87
2021/07/19 11:08:07;;;;;;;11.20;7.70;;;;;;;21.35;69.51;101728.63;4947863;28;20054;-87
2021/07/19 11:10:47;;;;;;;12.70;7.82;;;;;;;21.28;65.50;101725.03;4941675;28;20062;-87